Time;durP1;ratioP1;P1;durP2;ratioP2;P2;SDS_P1;SDS_P2;PMS_P1;PMS_P2;Temp;Humidity;BMP_temperature;BMP_pressure;BME280_temperature;BME280_humidity;BME280_pressure;Samples;Min_cycle;Max_cycle;Signal;HPM_P1;HPM_P2
2022/04/07 00:01:13;0.00;0.00;0.62;0.00;0.00;0.62;2.63;1.27;;;23.40;25.30;;;;;;2239098;61;20618;-52
2022/04/07 00:03:58;0.00;0.00;0.62;0.00;0.00;0.62;2.57;1.17;;;23.40;25.30;;;;;;2238979;61;20894;-58
2022/04/07 00:06:43;0.00;0.00;0.62;0.00;0.00;0.62;1.83;1.20;;;23.40;25.30;;;;;;2239642;61;20374;-55
2022/04/07 00:09:29;0.00;0.00;0.62;0.00;0.00;0.62;1.80;1.40;;;23.40;25.30;;;;;;2238910;61;20973;-57
2022/04/07 00:12:13;0.00;0.00;0.62;0.00;0.00;0.62;1.80;1.00;;;23.40;25.30;;;;;;2239225;61;20373;-59
2022/04/07 00:15:00;0.00;0.00;0.62;0.00;0.00;0.62;1.40;0.93;;;23.40;25.30;;;;;;2239750;61;20381;-59
2022/04/07 00:17:45;0.00;0.00;0.62;0.00;0.00;0.62;2.20;1.20;;;23.40;25.30;;;;;;2238382;61;20405;-55
2022/04/07 00:20:29;0.00;0.00;0.62;0.00;0.00;0.62;1.40;0.90;;;23.40;25.30;;;;;;2237708;61;20417;-56
2022/04/07 00:23:14;0.00;0.00;0.62;0.00;0.00;0.62;1.60;1.20;;;23.40;25.30;;;;;;2239587;61;20385;-57
2022/04/07 00:26:00;0.00;0.00;0.62;0.00;0.00;0.62;2.00;1.20;;;23.40;25.30;;;;;;2239169;61;20378;-58
2022/04/07 00:28:46;0.00;0.00;0.62;0.00;0.00;0.62;2.20;1.20;;;23.40;25.30;;;;;;2238738;61;20481;-58
2022/04/07 00:31:39;0.00;0.00;0.62;0.00;0.00;0.62;1.60;1.10;;;23.40;25.30;;;;;;2239867;61;20457;-55
2022/04/07 00:34:24;0.00;0.00;0.62;0.00;0.00;0.62;1.83;1.17;;;23.40;25.30;;;;;;2239398;61;20370;-58
2022/04/07 00:37:09;0.00;0.00;0.62;0.00;0.00;0.62;2.03;1.10;;;23.40;25.30;;;;;;2239252;61;20365;-56
2022/04/07 00:39:53;0.00;0.00;0.62;0.00;0.00;0.62;1.50;1.00;;;23.40;25.30;;;;;;2238907;61;20377;-53
2022/04/07 00:42:47;0.00;0.00;0.62;0.00;0.00;0.62;1.70;1.30;;;23.40;25.30;;;;;;2239372;61;20442;-53
2022/04/07 00:45:32;0.00;0.00;0.62;0.00;0.00;0.62;1.73;1.27;;;23.40;25.30;;;;;;2239595;61;20374;-50
2022/04/07 00:48:16;0.00;0.00;0.62;0.00;0.00;0.62;2.23;1.50;;;23.40;25.30;;;;;;2241258;61;20843;-54
2022/04/07 00:51:02;0.00;0.00;0.62;0.00;0.00;0.62;1.80;1.00;;;23.40;25.30;;;;;;2249512;48;20407;-62
2022/04/07 00:53:47;0.00;0.00;0.62;0.00;0.00;0.62;1.80;1.10;;;23.40;25.30;;;;;;2248423;61;20770;-65
2022/04/07 00:56:33;0.00;0.00;0.62;0.00;0.00;0.62;1.70;1.10;;;23.40;25.20;;;;;;2245032;61;20364;-67
2022/04/07 00:59:22;0.00;0.00;0.62;0.00;0.00;0.62;2.13;1.10;;;23.40;25.20;;;;;;2247164;61;20407;-61
2022/04/07 01:02:09;0.00;0.00;0.62;0.00;0.00;0.62;3.30;1.97;;;23.40;25.20;;;;;;2248148;61;20423;-63
2022/04/07 01:04:53;0.00;0.00;0.62;0.00;0.00;0.62;3.27;1.97;;;23.40;25.10;;;;;;2247467;61;20371;-59
2022/04/07 01:07:39;0.00;0.00;0.62;0.00;0.00;0.62;2.23;1.50;;;23.40;25.00;;;;;;2248341;61;20363;-63
2022/04/07 01:10:25;0.00;0.00;0.62;0.00;0.00;0.62;2.80;1.93;;;23.30;24.80;;;;;;2244891;61;20926;-61
2022/04/07 01:13:11;0.00;0.00;0.62;0.00;0.00;0.62;2.67;2.00;;;23.30;24.70;;;;;;2247107;61;20415;-59
2022/04/07 01:15:58;0.00;0.00;0.62;0.00;0.00;0.62;2.93;1.93;;;23.20;24.60;;;;;;2245117;61;21120;-60
2022/04/07 01:18:44;0.00;0.00;0.62;0.00;0.00;0.62;2.90;1.90;;;23.20;24.60;;;;;;2247915;61;20371;-64
2022/04/07 01:21:32;0.00;0.00;0.62;0.00;0.00;0.62;2.70;1.70;;;23.10;24.60;;;;;;2244383;61;20790;-63
2022/04/07 01:24:18;0.00;0.00;0.62;0.00;0.00;0.62;3.20;1.90;;;23.10;24.60;;;;;;2242335;61;20407;-62
2022/04/07 01:27:05;0.00;0.00;0.62;0.00;0.00;0.62;2.27;1.90;;;23.00;24.70;;;;;;2244004;61;20705;-62
2022/04/07 01:29:49;0.00;0.00;0.62;0.00;0.00;0.62;4.00;2.03;;;23.00;24.70;;;;;;2247713;61;20793;-62
2022/04/07 01:32:39;0.00;0.00;0.62;0.00;0.00;0.62;2.50;1.53;;;22.90;24.60;;;;;;2248013;61;20789;-61
2022/04/07 01:35:24;0.00;0.00;0.62;0.00;0.00;0.62;2.00;1.80;;;22.90;24.70;;;;;;2247115;61;20888;-60
2022/04/07 01:38:09;0.00;0.00;0.62;0.00;0.00;0.62;2.20;1.70;;;22.80;24.70;;;;;;2247935;61;20452;-62
2022/04/07 01:40:53;0.00;0.00;0.62;0.00;0.00;0.62;2.77;1.57;;;22.80;24.70;;;;;;2247978;61;20616;-62
2022/04/07 01:43:41;0.00;0.00;0.62;0.00;0.00;0.62;2.60;1.40;;;22.70;24.60;;;;;;2244265;61;20431;-61
2022/04/07 01:46:26;0.00;0.00;0.62;0.00;0.00;0.62;3.50;1.63;;;22.60;24.60;;;;;;2247965;61;20419;-61
2022/04/07 01:49:11;0.00;0.00;0.62;0.00;0.00;0.62;2.50;1.20;;;22.60;24.70;;;;;;2246752;61;20407;-61
2022/04/07 01:51:56;0.00;0.00;0.62;0.00;0.00;0.62;2.07;1.47;;;22.60;24.80;;;;;;2248256;61;20394;-59
2022/04/07 01:54:43;0.00;0.00;0.62;0.00;0.00;0.62;2.27;1.50;;;22.50;24.80;;;;;;2244677;61;21072;-61
2022/04/07 01:57:28;0.00;0.00;0.62;0.00;0.00;0.62;1.70;1.30;;;22.40;24.80;;;;;;2244462;61;20459;-63
2022/04/07 02:00:16;0.00;0.00;0.62;0.00;0.00;0.62;2.70;1.40;;;22.40;24.90;;;;;;2245517;61;20388;-61
2022/04/07 02:03:05;0.00;0.00;0.62;0.00;0.00;0.62;2.30;1.57;;;22.40;25.00;;;;;;2248452;61;20403;-61
2022/04/07 02:05:50;0.00;0.00;0.62;0.00;0.00;0.62;3.60;2.20;;;22.40;25.00;;;;;;2248216;61;20452;-59
2022/04/07 02:08:34;0.00;0.00;0.62;0.00;0.00;0.62;2.57;1.30;;;22.30;25.00;;;;;;2247860;61;20411;-60
2022/04/07 02:11:19;0.00;0.00;0.62;0.00;0.00;0.62;2.67;1.47;;;22.30;25.00;;;;;;2248063;61;20387;-61
2022/04/07 02:14:04;0.00;0.00;0.62;0.00;0.00;0.62;2.03;1.20;;;22.30;25.10;;;;;;2248486;61;20360;-61
2022/04/07 02:16:49;0.00;0.00;0.62;0.00;0.00;0.62;3.43;1.80;;;22.20;25.10;;;;;;2245352;61;20436;-60
2022/04/07 02:19:34;0.00;0.00;0.62;0.00;0.00;0.62;2.20;1.13;;;22.20;25.70;;;;;;2244343;61;20519;-58
2022/04/07 02:22:19;0.00;0.00;0.62;0.00;0.00;0.62;2.47;1.53;;;22.10;25.20;;;;;;2245451;61;20388;-62
2022/04/07 02:25:08;0.00;0.00;0.62;0.00;0.00;0.62;2.40;1.70;;;22.10;25.20;;;;;;2248823;61;20367;-60
2022/04/07 02:27:52;0.00;0.00;0.62;0.00;0.00;0.62;2.43;1.33;;;22.10;25.30;;;;;;2244572;61;20372;-61
2022/04/07 02:30:37;0.00;0.00;0.62;0.00;0.00;0.62;1.70;1.17;;;22.00;25.30;;;;;;2248492;61;20403;-55
2022/04/07 02:33:23;0.00;0.00;0.62;0.00;0.00;0.62;1.63;1.10;;;22.00;25.40;;;;;;2248176;61;20502;-60
2022/04/07 02:36:09;0.00;0.00;0.62;0.00;0.00;0.62;2.00;1.37;;;22.00;25.40;;;;;;2248448;61;20367;-61
2022/04/07 02:38:53;0.00;0.00;0.62;0.00;0.00;0.62;2.00;1.23;;;22.00;25.50;;;;;;2245047;61;20367;-60
2022/04/07 02:41:38;0.00;0.00;0.62;0.00;0.00;0.62;3.10;1.10;;;21.90;25.50;;;;;;2244555;61;20886;-61
2022/04/07 02:44:22;0.00;0.00;0.62;0.00;0.00;0.62;1.47;1.10;;;21.90;25.50;;;;;;2248795;61;20371;-62
2022/04/07 02:47:07;0.00;0.00;0.62;0.00;0.00;0.62;2.37;1.47;;;21.90;25.50;;;;;;2248586;61;20878;-61
2022/04/07 02:49:53;0.00;0.00;0.62;0.00;0.00;0.62;2.20;1.30;;;21.80;25.50;;;;;;2247552;61;20395;-61
2022/04/07 02:52:38;0.00;0.00;0.62;0.00;0.00;0.62;2.03;1.37;;;21.80;25.50;;;;;;2248531;61;20999;-63
2022/04/07 02:55:24;0.00;0.00;0.62;0.00;0.00;0.62;1.97;1.40;;;21.80;25.60;;;;;;2245136;61;20367;-55
2022/04/07 02:58:08;0.00;0.00;0.62;0.00;0.00;0.62;3.40;1.60;;;21.70;25.50;;;;;;2248271;61;20383;-61
2022/04/07 03:00:53;0.00;0.00;0.62;0.00;0.00;0.62;2.10;1.40;;;21.70;25.50;;;;;;2248440;61;20399;-60
2022/04/07 03:03:38;0.00;0.00;0.62;0.00;0.00;0.62;2.20;1.30;;;21.70;25.50;;;;;;2244515;61;20399;-61
2022/04/07 03:06:24;0.00;0.00;0.62;0.00;0.00;0.62;1.90;1.17;;;21.70;25.50;;;;;;2248556;61;20367;-64
2022/04/07 03:09:09;0.00;0.00;0.62;0.00;0.00;0.62;2.77;1.20;;;21.60;25.50;;;;;;2247988;61;20557;-62
2022/04/07 03:11:53;0.00;0.00;0.62;0.00;0.00;0.62;2.27;1.30;;;21.60;25.50;;;;;;2247664;61;20391;-60
2022/04/07 03:14:38;0.00;0.00;0.62;0.00;0.00;0.62;2.63;2.00;;;21.60;25.50;;;;;;2245528;61;20368;-60
2022/04/07 03:17:22;0.00;0.00;0.62;0.00;0.00;0.62;1.90;1.13;;;21.50;25.50;;;;;;2245347;61;20879;-59
2022/04/07 03:20:08;0.00;0.00;0.62;0.00;0.00;0.62;2.00;1.10;;;21.50;25.60;;;;;;2247890;61;20402;-60
2022/04/07 03:22:54;0.00;0.00;0.62;0.00;0.00;0.62;2.40;1.23;;;21.40;25.50;;;;;;2248280;61;20974;-63
2022/04/07 03:25:38;0.00;0.00;0.62;0.00;0.00;0.62;1.83;1.10;;;21.40;25.50;;;;;;2247131;61;20488;-62
2022/04/07 03:28:23;0.00;0.00;0.62;0.00;0.00;0.62;1.63;0.90;;;21.40;25.60;;;;;;2247829;61;20383;-61
2022/04/07 03:31:08;0.00;0.00;0.62;0.00;0.00;0.62;1.90;1.20;;;21.30;25.50;;;;;;2248423;61;20387;-62
2022/04/07 03:33:53;0.00;0.00;0.62;0.00;0.00;0.62;2.23;1.20;;;21.30;25.50;;;;;;2247474;61;20379;-61
2022/04/07 03:36:37;0.00;0.00;0.62;0.00;0.00;0.62;3.07;1.17;;;21.30;25.50;;;;;;2248402;61;21016;-60
2022/04/07 03:39:23;0.00;0.00;0.62;0.00;0.00;0.62;2.53;1.40;;;21.20;25.50;;;;;;2248024;61;20891;-63
2022/04/07 03:42:08;0.00;0.00;0.62;0.00;0.00;0.62;3.87;1.10;;;21.20;25.50;;;;;;2247924;61;20891;-62
2022/04/07 03:44:52;0.00;0.00;0.62;0.00;0.00;0.62;2.80;1.27;;;21.20;25.50;;;;;;2245179;61;20452;-60
2022/04/07 03:47:37;0.00;0.00;0.62;0.00;0.00;0.62;1.50;1.00;;;21.20;25.50;;;;;;2247462;61;20368;-65
2022/04/07 03:50:21;0.00;0.00;0.62;0.00;0.00;0.62;1.80;0.90;;;21.10;25.50;;;;;;2248508;61;20507;-64
2022/04/07 03:53:06;0.00;0.00;0.62;0.00;0.00;0.62;2.47;1.20;;;21.10;25.50;;;;;;2248340;61;20359;-59
2022/04/07 03:55:52;0.00;0.00;0.62;0.00;0.00;0.62;4.00;1.40;;;21.10;25.50;;;;;;2247577;61;20414;-62
2022/04/07 03:58:36;0.00;0.00;0.62;0.00;0.00;0.62;2.03;1.23;;;21.00;25.50;;;;;;2248112;61;20371;-60
2022/04/07 04:01:21;0.00;0.00;0.62;0.00;0.00;0.62;2.80;1.40;;;21.00;25.50;;;;;;2248457;61;20427;-61
2022/04/07 04:04:06;0.00;0.00;0.62;0.00;0.00;0.62;2.00;1.10;;;21.00;25.50;;;;;;2247518;61;20360;-61
2022/04/07 04:06:51;0.00;0.00;0.62;0.00;0.00;0.62;2.10;1.17;;;21.00;25.50;;;;;;2248423;61;20368;-62
2022/04/07 04:09:35;0.00;0.00;0.62;0.00;0.00;0.62;1.57;1.00;;;21.00;25.60;;;;;;2247172;61;20428;-65
2022/04/07 04:12:21;0.00;0.00;0.62;0.00;0.00;0.62;1.80;1.20;;;21.00;25.60;;;;;;2248532;61;20850;-61
2022/04/07 04:15:07;0.00;0.00;0.62;0.00;0.00;0.62;3.63;1.43;;;20.90;25.50;;;;;;2248066;61;20411;-62
2022/04/07 04:17:52;0.00;0.00;0.62;0.00;0.00;0.62;5.07;1.40;;;20.90;25.60;;;;;;2247207;61;20779;-62
2022/04/07 04:20:38;0.00;0.00;0.62;0.00;0.00;0.62;3.40;1.67;;;20.90;25.60;;;;;;2248204;61;20783;-62
2022/04/07 04:23:23;0.00;0.00;0.62;0.00;0.00;0.62;2.57;1.10;;;20.80;25.50;;;;;;2248216;61;20390;-61
2022/04/07 04:26:08;0.00;0.00;0.62;0.00;0.00;0.62;2.37;1.40;;;20.80;25.50;;;;;;2247525;61;20810;-61
2022/04/07 04:28:53;0.00;0.00;0.62;0.00;0.00;0.62;1.90;1.17;;;20.80;25.60;;;;;;2247867;61;20394;-60
2022/04/07 04:31:38;0.00;0.00;0.62;0.00;0.00;0.62;2.70;1.30;;;20.80;25.60;;;;;;2247958;61;20372;-62
2022/04/07 04:34:22;0.00;0.00;0.62;0.00;0.00;0.62;3.60;1.60;;;20.70;25.50;;;;;;2248334;61;20448;-60
2022/04/07 04:37:07;0.00;0.00;0.62;0.00;0.00;0.62;1.73;1.30;;;20.80;25.70;;;;;;2248039;61;20387;-64
2022/04/07 04:39:52;0.00;0.00;0.62;0.00;0.00;0.62;2.30;1.10;;;20.70;25.70;;;;;;2247264;61;20830;-63
2022/04/07 04:42:40;0.00;0.00;0.62;0.00;0.00;0.62;3.33;1.30;;;20.70;25.70;;;;;;2248035;61;20386;-60
2022/04/07 04:45:26;0.00;0.00;0.62;0.00;0.00;0.62;2.60;1.50;;;20.70;25.70;;;;;;2248385;61;20781;-63
2022/04/07 04:48:10;0.00;0.00;0.62;0.00;0.00;0.62;2.50;1.60;;;20.70;25.70;;;;;;2247164;61;20364;-62
2022/04/07 04:50:58;0.00;0.00;0.62;0.00;0.00;0.62;2.93;1.10;;;20.60;25.70;;;;;;2248169;61;20411;-63
2022/04/07 04:53:43;0.00;0.00;0.62;0.00;0.00;0.62;2.10;1.10;;;20.60;25.70;;;;;;2247912;61;20356;-64
2022/04/07 04:56:27;0.00;0.00;0.62;0.00;0.00;0.62;3.47;1.20;;;20.60;25.70;;;;;;2248199;61;20366;-61
2022/04/07 04:59:12;0.00;0.00;0.62;0.00;0.00;0.62;2.37;1.00;;;20.60;25.70;;;;;;2247769;61;20367;-60
2022/04/07 05:01:58;0.00;0.00;0.62;0.00;0.00;0.62;2.20;1.23;;;20.60;25.70;;;;;;2247228;61;20372;-60
2022/04/07 05:04:42;0.00;0.00;0.62;0.00;0.00;0.62;1.63;0.90;;;20.50;25.70;;;;;;2248142;61;20455;-60
2022/04/07 05:07:29;0.00;0.00;0.62;0.00;0.00;0.62;2.80;1.17;;;20.50;25.70;;;;;;2248436;61;20375;-65
2022/04/07 05:10:14;0.00;0.00;0.62;0.00;0.00;0.62;2.50;1.33;;;20.50;25.70;;;;;;2247451;61;20387;-67
2022/04/07 05:12:58;0.00;0.00;0.62;0.00;0.00;0.62;4.10;1.20;;;20.50;25.80;;;;;;2248367;61;20435;-67
2022/04/07 05:15:43;0.00;0.00;0.62;0.00;0.00;0.62;2.17;1.07;;;20.50;25.80;;;;;;2248345;61;20368;-61
2022/04/07 05:18:29;0.00;0.00;0.62;0.00;0.00;0.62;2.23;1.13;;;20.40;25.80;;;;;;2247711;61;20415;-63
2022/04/07 05:21:14;0.00;0.00;0.62;0.00;0.00;0.62;3.70;1.37;;;20.40;25.80;;;;;;2248123;61;20399;-62
2022/04/07 05:23:59;0.00;0.00;0.62;0.00;0.00;0.62;2.17;1.20;;;20.40;25.80;;;;;;2247390;61;20395;-61
2022/04/07 05:26:43;0.00;0.00;0.62;0.00;0.00;0.62;2.60;1.30;;;20.40;25.80;;;;;;2248212;61;20933;-62
2022/04/07 05:29:28;0.00;0.00;0.62;0.00;0.00;0.62;2.80;1.30;;;20.40;25.90;;;;;;2247773;61;20773;-62
2022/04/07 05:32:12;0.00;0.00;0.62;0.00;0.00;0.62;1.80;1.00;;;20.40;25.80;;;;;;2248109;61;20387;-64
2022/04/07 05:34:58;0.00;0.00;0.62;0.00;0.00;0.62;2.17;1.00;;;20.40;25.80;;;;;;2248958;61;20442;-62
2022/04/07 05:37:43;0.00;0.00;0.62;0.00;0.00;0.62;2.17;1.43;;;20.40;25.90;;;;;;2245693;61;20438;-60
2022/04/07 05:40:28;0.00;0.00;0.62;0.00;0.00;0.62;2.73;1.07;;;20.40;25.90;;;;;;2248153;61;20390;-58
2022/04/07 05:43:12;0.00;0.00;0.62;0.00;0.00;0.62;2.17;1.10;;;20.40;25.80;;;;;;2248514;61;20918;-63
2022/04/07 05:45:57;0.00;0.00;0.62;0.00;0.00;0.62;2.30;1.10;;;20.40;25.80;;;;;;2248197;61;20934;-58
2022/04/07 05:48:41;0.00;0.00;0.62;0.00;0.00;0.62;4.90;1.30;;;20.40;25.80;;;;;;2248288;61;20919;-62
2022/04/07 05:51:27;0.00;0.00;0.62;0.00;0.00;0.62;3.07;1.17;;;20.40;25.80;;;;;;2248760;61;20445;-64
2022/04/07 05:54:14;0.00;0.00;0.62;0.00;0.00;0.62;5.60;1.20;;;20.40;25.80;;;;;;2247865;61;20423;-60
2022/04/07 05:56:59;0.00;0.00;0.62;0.00;0.00;0.62;2.50;1.30;;;20.30;25.70;;;;;;2248947;61;20371;-62
2022/04/07 05:59:45;0.00;0.00;0.62;0.00;0.00;0.62;2.47;1.03;;;20.30;26.30;;;;;;2248235;61;20474;-64
2022/04/07 06:02:29;0.00;0.00;0.62;0.00;0.00;0.62;2.90;1.10;;;20.30;25.80;;;;;;2247438;61;20439;-62
2022/04/07 06:05:18;0.00;0.00;0.62;0.00;0.00;0.62;1.73;1.13;;;20.30;25.70;;;;;;2248814;61;20920;-60
2022/04/07 06:08:05;0.00;0.00;0.62;0.00;0.00;0.62;3.50;1.30;;;20.30;25.80;;;;;;2247252;61;20368;-62
2022/04/07 06:10:50;0.00;0.00;0.62;0.00;0.00;0.62;3.27;1.10;;;20.30;25.80;;;;;;2248919;61;20391;-59
2022/04/07 06:13:34;0.00;0.00;0.62;0.00;0.00;0.62;1.83;1.10;;;20.30;25.80;;;;;;2248775;61;20363;-56
2022/04/07 06:16:20;0.00;0.00;0.62;0.00;0.00;0.62;2.33;1.10;;;20.30;25.80;;;;;;2247979;61;20423;-70
2022/04/07 06:19:08;0.00;0.00;0.62;0.00;0.00;0.62;8.43;1.30;;;20.30;25.80;;;;;;2248726;61;20832;-62
2022/04/07 06:21:55;0.00;0.00;0.62;0.00;0.00;0.62;2.70;1.07;;;20.20;25.80;;;;;;2245926;61;20907;-55
2022/04/07 06:24:40;0.00;0.00;0.62;0.00;0.00;0.62;6.73;1.50;;;20.20;25.80;;;;;;2248292;61;20375;-63
2022/04/07 06:27:34;0.00;0.00;0.62;0.00;0.00;0.62;1.70;1.10;;;20.20;25.80;;;;;;2245275;61;20507;-58
2022/04/07 06:30:20;0.00;0.00;0.62;0.00;0.00;0.62;4.60;1.33;;;20.20;25.80;;;;;;2247935;61;20419;-60
2022/04/07 06:33:05;0.00;0.00;0.62;0.00;0.00;0.62;2.23;1.10;;;20.20;25.90;;;;;;2245148;61;20914;-65
2022/04/07 06:35:50;0.00;0.00;0.62;0.00;0.00;0.62;3.80;1.00;;;20.20;25.80;;;;;;2248854;61;20379;-63
2022/04/07 06:38:35;0.00;0.00;0.62;0.00;0.00;0.62;3.20;1.40;;;20.20;25.80;;;;;;2247444;61;20359;-57
2022/04/07 06:41:20;0.00;0.00;0.62;0.00;0.00;0.62;2.37;1.30;;;20.30;25.90;;;;;;2248705;61;20435;-64
2022/04/07 06:44:05;0.00;0.00;0.62;0.00;0.00;0.62;2.90;1.30;;;20.30;25.90;;;;;;2248695;61;20395;-63
2022/04/07 06:46:50;0.00;0.00;0.62;0.00;0.00;0.62;2.60;1.10;;;20.30;25.90;;;;;;2247934;61;20368;-67
2022/04/07 06:49:35;0.00;0.00;0.62;0.00;0.00;0.62;2.80;1.57;;;20.30;25.90;;;;;;2248174;61;20438;-64
2022/04/07 06:52:20;0.00;0.00;0.62;0.00;0.00;0.62;2.27;1.33;;;20.30;25.90;;;;;;2248147;61;20451;-60
2022/04/07 06:55:06;0.00;0.00;0.62;0.00;0.00;0.62;3.57;1.23;;;20.30;25.90;;;;;;2248957;61;20491;-68
2022/04/07 06:57:54;0.00;0.00;0.62;0.00;0.00;0.62;1.40;0.80;;;20.30;25.80;;;;;;2248644;61;20923;-64
2022/04/07 07:00:43;0.00;0.00;0.62;0.00;0.00;0.62;2.50;1.10;;;20.30;25.80;;;;;;2247437;61;20415;-59
2022/04/07 07:03:28;0.00;0.00;0.62;0.00;0.00;0.62;5.20;1.10;;;20.40;25.90;;;;;;2247200;61;20451;-66
2022/04/07 07:06:13;0.00;0.00;0.62;0.00;0.00;0.62;1.60;1.20;;;20.40;25.90;;;;;;2247564;61;20458;-63
2022/04/07 07:08:58;0.00;0.00;0.62;0.00;0.00;0.62;1.80;0.80;;;20.50;25.90;;;;;;2247812;61;20826;-68
2022/04/07 07:11:42;0.00;0.00;0.62;0.00;0.00;0.62;1.70;0.80;;;20.50;25.90;;;;;;2248441;61;20771;-63
2022/04/07 07:14:28;0.00;0.00;0.62;0.00;0.00;0.62;1.40;0.80;;;20.60;25.90;;;;;;2248195;61;20456;-66
2022/04/07 07:17:12;0.00;0.00;0.62;0.00;0.00;0.62;1.70;1.10;;;20.60;25.90;;;;;;2248661;61;20820;-61
2022/04/07 07:20:01;0.00;0.00;0.62;0.00;0.00;0.62;1.60;0.70;;;20.70;26.00;;;;;;2248375;61;20455;-66
2022/04/07 07:22:46;0.00;0.00;0.62;0.00;0.00;0.62;1.70;1.53;;;20.70;26.00;;;;;;2242188;61;20886;-66
2022/04/07 07:25:31;0.00;0.00;0.62;0.00;0.00;0.62;3.00;0.90;;;20.80;26.00;;;;;;2248751;61;20367;-66
2022/04/07 07:28:16;0.00;0.00;0.62;0.00;0.00;0.62;2.50;0.80;;;20.80;26.00;;;;;;2248430;61;20771;-62
2022/04/07 07:31:02;0.00;0.00;0.62;0.00;0.00;0.62;2.23;0.80;;;20.90;26.00;;;;;;2248114;61;20387;-65
2022/04/07 07:33:46;0.00;0.00;0.62;0.00;0.00;0.62;1.47;0.70;;;20.90;26.00;;;;;;2248509;61;20407;-69
2022/04/07 07:36:31;0.00;0.00;0.62;0.00;0.00;0.62;1.63;0.73;;;21.00;26.00;;;;;;2248351;61;20367;-62
2022/04/07 07:39:15;0.00;0.00;0.62;0.00;0.00;0.62;2.23;0.77;;;21.00;26.00;;;;;;2247916;61;20368;-67
2022/04/07 07:42:00;0.00;0.00;0.62;0.00;0.00;0.62;1.47;0.83;;;21.00;26.00;;;;;;2245536;61;20375;-63
2022/04/07 07:44:44;0.00;0.00;0.62;0.00;0.00;0.62;1.80;0.80;;;21.10;26.10;;;;;;2244650;61;20371;-65
2022/04/07 07:47:30;0.00;0.00;0.62;0.00;0.00;0.62;1.30;0.80;;;21.10;26.00;;;;;;2248404;61;20776;-63
2022/04/07 07:50:15;0.00;0.00;0.62;0.00;0.00;0.62;1.40;0.80;;;21.20;26.10;;;;;;2248260;61;20977;-63
2022/04/07 07:52:59;0.00;0.00;0.62;0.00;0.00;0.62;1.50;0.70;;;21.20;26.00;;;;;;2244903;61;20367;-61
2022/04/07 07:55:44;0.00;0.00;0.62;0.00;0.00;0.62;2.10;0.90;;;21.30;26.10;;;;;;2249022;61;20376;-65
2022/04/07 07:58:28;0.00;0.00;0.62;0.00;0.00;0.62;1.40;0.70;;;21.30;26.10;;;;;;2248509;61;20935;-63
2022/04/07 08:01:13;0.00;0.00;0.62;0.00;0.00;0.62;2.23;0.73;;;21.30;26.00;;;;;;2247571;61;20447;-60
2022/04/07 08:03:58;0.00;0.00;0.62;0.00;0.00;0.62;1.47;0.70;;;21.40;26.10;;;;;;2416519;45;20474;-66
2022/04/07 08:06:43;0.00;0.00;0.62;0.00;0.00;0.62;2.47;0.90;;;21.40;26.10;;;;;;2246790;61;20516;-66
2022/04/07 08:09:28;0.00;0.00;0.62;0.00;0.00;0.62;1.60;0.80;;;21.50;26.10;;;;;;2247808;61;20376;-62
2022/04/07 08:12:12;0.00;0.00;0.62;0.00;0.00;0.62;1.43;0.80;;;21.50;26.10;;;;;;2248586;61;20526;-60
2022/04/07 08:14:56;0.00;0.00;0.62;0.00;0.00;0.62;1.83;0.60;;;21.50;26.00;;;;;;2247818;61;20945;-67
2022/04/07 08:17:41;0.00;0.00;0.62;0.00;0.00;0.62;1.40;0.70;;;21.60;26.10;;;;;;2248633;61;20371;-63
2022/04/07 08:20:27;0.00;0.00;0.62;0.00;0.00;0.62;1.23;0.60;;;21.60;26.00;;;;;;2248466;61;20399;-67
2022/04/07 08:23:12;0.00;0.00;0.62;0.00;0.00;0.62;2.00;0.77;;;21.70;26.10;;;;;;2247379;61;20392;-65
2022/04/07 08:25:57;0.00;0.00;0.62;0.00;0.00;0.62;1.30;0.73;;;21.70;26.00;;;;;;2248652;61;20426;-61
2022/04/07 08:28:42;0.00;0.00;0.62;0.00;0.00;0.62;1.80;0.70;;;21.70;26.10;;;;;;2246994;61;20364;-64
2022/04/07 08:31:27;0.00;0.00;0.62;0.00;0.00;0.62;1.50;0.70;;;21.70;26.00;;;;;;2248304;61;20449;-59
2022/04/07 08:34:11;0.00;0.00;0.62;0.00;0.00;0.62;1.50;0.70;;;21.80;26.00;;;;;;2248179;61;20978;-67
2022/04/07 08:36:57;0.00;0.00;0.62;0.00;0.00;0.62;1.70;1.00;;;21.80;26.00;;;;;;2247493;61;20773;-66
2022/04/07 08:39:42;0.00;0.00;0.62;0.00;0.00;0.62;1.30;0.73;;;21.90;26.10;;;;;;2247764;61;20438;-72
2022/04/07 08:42:27;0.00;0.00;0.62;0.00;0.00;0.62;1.30;0.70;;;21.90;26.00;;;;;;2248161;61;20391;-67
2022/04/07 08:45:12;0.00;0.00;0.62;0.00;0.00;0.62;1.40;0.80;;;21.90;26.00;;;;;;2247446;61;20371;-70
2022/04/07 08:47:57;0.00;0.00;0.62;0.00;0.00;0.62;1.63;0.90;;;21.90;26.00;;;;;;2248105;61;20356;-73
2022/04/07 08:50:43;0.00;0.00;0.62;0.00;0.00;0.62;1.27;0.67;;;22.00;26.00;;;;;;2244540;61;20391;-67
2022/04/07 08:53:30;0.00;0.00;0.62;0.00;0.00;0.62;2.10;0.80;;;22.00;26.00;;;;;;2248282;61;20379;-66
2022/04/07 08:56:14;0.00;0.00;0.62;0.00;0.00;0.62;2.70;0.80;;;22.00;26.00;;;;;;2248053;61;20368;-65
2022/04/07 08:58:59;0.00;0.00;0.62;0.00;0.00;0.62;2.07;0.80;;;22.00;26.00;;;;;;2243915;61;20367;-55
2022/04/07 09:01:44;0.00;0.00;0.62;0.00;0.00;0.62;1.30;0.80;;;22.10;26.00;;;;;;2248167;61;20367;-53
2022/04/07 09:04:30;0.00;0.00;0.62;0.00;0.00;0.62;1.40;0.70;;;22.10;26.00;;;;;;2248103;61;21008;-54
2022/04/07 09:07:15;0.00;0.00;0.62;0.00;0.00;0.62;1.50;0.90;;;22.10;26.00;;;;;;2248381;61;20783;-62
2022/04/07 09:10:04;0.00;0.00;0.62;0.00;0.00;0.62;1.60;0.80;;;22.10;25.90;;;;;;2248465;61;20394;-69
2022/04/07 09:12:51;0.00;0.00;0.62;0.00;0.00;0.62;1.40;0.80;;;22.20;26.00;;;;;;2248600;61;20367;-70
2022/04/07 09:15:37;0.00;0.00;0.62;0.00;0.00;0.62;3.00;1.00;;;22.20;26.00;;;;;;2248702;61;20426;-71
2022/04/07 09:18:25;0.00;0.00;0.62;0.00;0.00;0.62;2.03;0.80;;;22.20;25.90;;;;;;2248644;61;20375;-52
2022/04/07 09:21:22;0.00;0.00;0.62;0.00;0.00;0.62;1.50;0.67;;;22.20;26.00;;;;;;2248482;61;20387;-56
2022/04/07 09:24:07;0.00;0.00;0.62;0.00;0.00;0.62;1.43;0.70;;;22.20;25.90;;;;;;2248510;61;20395;-54
2022/04/07 09:26:53;0.00;0.00;0.62;0.00;0.00;0.62;1.40;0.80;;;22.30;26.00;;;;;;2248701;61;20820;-60
2022/04/07 09:29:40;0.00;0.00;0.62;0.00;0.00;0.62;1.30;0.70;;;22.30;25.90;;;;;;2247782;61;20383;-69
2022/04/07 09:32:26;0.00;0.00;0.62;0.00;0.00;0.62;1.70;1.10;;;22.30;26.00;;;;;;2249064;61;20363;-67
2022/04/07 09:35:12;0.00;0.00;0.62;0.00;0.00;0.62;1.50;0.70;;;22.30;26.00;;;;;;2248550;61;20523;-66
2022/04/07 09:38:01;0.00;0.00;0.62;0.00;0.00;0.62;1.20;0.70;;;22.40;26.00;;;;;;2248537;61;20439;-66
2022/04/07 09:40:46;0.00;0.00;0.62;0.00;0.00;0.62;1.40;0.70;;;22.40;26.00;;;;;;2248461;61;20383;-64
2022/04/07 09:43:42;0.00;0.00;0.62;0.00;0.00;0.62;1.77;0.70;;;22.40;26.00;;;;;;2247942;61;20394;-67
2022/04/07 09:46:32;0.00;0.00;0.62;0.00;0.00;0.62;2.33;0.70;;;22.40;26.00;;;;;;2248821;61;20777;-66
2022/04/07 09:49:17;0.00;0.00;0.62;0.00;0.00;0.62;1.20;0.60;;;22.50;26.00;;;;;;2248640;61;20363;-59
2022/04/07 09:52:02;0.00;0.00;0.62;0.00;0.00;0.62;1.20;0.60;;;22.50;26.00;;;;;;2248314;61;20454;-68
2022/04/07 09:54:51;0.00;0.00;0.62;0.00;0.00;0.62;1.43;0.70;;;22.50;26.00;;;;;;2248737;61;20428;-62
2022/04/07 09:57:37;0.00;0.00;0.62;0.00;0.00;0.62;1.20;0.70;;;22.50;26.00;;;;;;2248197;61;20392;-66
2022/04/07 10:00:24;0.00;0.00;0.62;0.00;0.00;0.62;1.20;0.70;;;22.50;25.90;;;;;;2248887;61;20468;-66
2022/04/07 10:03:09;0.00;0.00;0.62;0.00;0.00;0.62;1.57;1.00;;;22.60;26.00;;;;;;2248598;61;20801;-66
2022/04/07 10:05:54;0.00;0.00;0.62;0.00;0.00;0.62;1.20;0.60;;;22.60;26.00;;;;;;2248434;61;20399;-69
2022/04/07 10:08:40;0.00;0.00;0.62;0.00;0.00;0.62;1.30;0.60;;;22.60;26.00;;;;;;2248380;61;20419;-62
2022/04/07 10:11:28;0.00;0.00;0.62;0.00;0.00;0.62;1.40;0.70;;;22.60;26.00;;;;;;2248505;61;20387;-55
2022/04/07 10:14:17;0.00;0.00;0.62;0.00;0.00;0.62;1.70;0.70;;;22.60;26.00;;;;;;2245015;61;20368;-52
2022/04/07 10:17:05;0.00;0.00;0.62;0.00;0.00;0.62;1.70;1.00;;;22.70;26.00;;;;;;2244549;61;20388;-68
2022/04/07 10:19:56;0.00;0.00;0.62;0.00;0.00;0.62;2.17;0.90;;;22.70;26.00;;;;;;2244119;61;20396;-62
2022/04/07 10:23:09;0.00;0.00;0.62;0.00;0.00;0.62;1.40;0.80;;;22.70;26.00;;;;;;2244561;61;20477;-57
2022/04/07 10:25:57;0.00;0.00;0.62;0.00;0.00;0.62;1.40;0.70;;;22.70;26.00;;;;;;2245180;61;20412;-64
2022/04/07 10:28:41;0.00;0.00;0.62;0.00;0.00;0.62;1.50;0.80;;;22.80;26.10;;;;;;2243082;61;20424;-62
2022/04/07 10:31:29;0.00;0.00;0.62;0.00;0.00;0.62;1.47;0.90;;;22.80;26.00;;;;;;2244830;61;20447;-65
2022/04/07 10:34:31;0.00;0.00;0.62;0.00;0.00;0.62;1.50;0.70;;;22.80;26.00;;;;;;2244367;61;20368;-72
2022/04/07 10:37:28;0.00;0.00;0.62;0.00;0.00;0.62;1.60;0.80;;;22.80;26.00;;;;;;2244523;61;20388;-68
2022/04/07 10:40:50;0.00;0.00;0.62;0.00;0.00;0.62;1.60;0.80;;;22.80;26.00;;;;;;2244862;61;20383;-64
2022/04/07 10:43:40;0.00;0.00;0.62;0.00;0.00;0.62;1.20;0.70;;;22.80;25.90;;;;;;2243793;61;20396;-60
2022/04/07 10:46:25;0.00;0.00;0.62;0.00;0.00;0.62;1.40;0.73;;;22.90;26.00;;;;;;2244860;61;20416;-52
2022/04/07 10:49:18;0.00;0.00;0.62;0.00;0.00;0.62;1.53;0.90;;;22.90;25.90;;;;;;2244100;61;21214;-53
2022/04/07 10:52:06;0.00;0.00;0.62;0.00;0.00;0.62;1.40;0.70;;;22.90;25.90;;;;;;2244610;61;20364;-53
2022/04/07 10:55:11;0.00;0.00;0.62;0.00;0.00;0.62;1.60;0.93;;;22.80;25.80;;;;;;2244544;61;20844;-54